sensor_id;sensor_type;location;lat;lon;timestamp;P1;durP1;ratioP1;P2;durP2;ratioP2
20846;SDS011;10584;50.854;12.902;2022-07-11T00:01:40;2.67;;;1.60;;
20846;SDS011;10584;50.854;12.902;2022-07-11T00:07:02;2.70;;;1.30;;
20846;SDS011;10584;50.854;12.902;2022-07-11T00:12:24;3.83;;;1.27;;
20846;SDS011;10584;50.854;12.902;2022-07-11T00:17:47;4.10;;;1.70;;
20846;SDS011;10584;50.854;12.902;2022-07-11T00:23:08;3.07;;;1.40;;
20846;SDS011;10584;50.854;12.902;2022-07-11T00:28:30;2.30;;;1.60;;
20846;SDS011;10584;50.854;12.902;2022-07-11T00:33:51;3.00;;;1.50;;
20846;SDS011;10584;50.854;12.902;2022-07-11T00:39:13;3.67;;;1.37;;
20846;SDS011;10584;50.854;12.902;2022-07-11T00:44:34;3.57;;;1.63;;
20846;SDS011;10584;50.854;12.902;2022-07-11T00:49:56;5.03;;;1.40;;
20846;SDS011;10584;50.854;12.902;2022-07-11T00:55:18;4.33;;;1.90;;
20846;SDS011;10584;50.854;12.902;2022-07-11T01:00:40;2.63;;;1.50;;
20846;SDS011;10584;50.854;12.902;2022-07-11T01:06:02;5.73;;;1.83;;
20846;SDS011;10584;50.854;12.902;2022-07-11T01:11:23;3.97;;;1.90;;
20846;SDS011;10584;50.854;12.902;2022-07-11T01:16:50;3.73;;;1.90;;
20846;SDS011;10584;50.854;12.902;2022-07-11T01:22:13;6.30;;;1.70;;
20846;SDS011;10584;50.854;12.902;2022-07-11T01:27:35;5.00;;;1.93;;
20846;SDS011;10584;50.854;12.902;2022-07-11T01:32:57;4.50;;;1.80;;
20846;SDS011;10584;50.854;12.902;2022-07-11T01:38:19;3.23;;;1.93;;
20846;SDS011;10584;50.854;12.902;2022-07-11T01:43:41;4.53;;;2.00;;
20846;SDS011;10584;50.854;12.902;2022-07-11T01:49:02;5.33;;;1.90;;
20846;SDS011;10584;50.854;12.902;2022-07-11T01:54:24;5.23;;;1.77;;
20846;SDS011;10584;50.854;12.902;2022-07-11T01:59:46;5.43;;;2.17;;
20846;SDS011;10584;50.854;12.902;2022-07-11T02:05:07;3.27;;;1.73;;
20846;SDS011;10584;50.854;12.902;2022-07-11T02:10:28;5.23;;;2.80;;
20846;SDS011;10584;50.854;12.902;2022-07-11T02:15:50;4.73;;;2.07;;
20846;SDS011;10584;50.854;12.902;2022-07-11T02:21:13;5.30;;;2.00;;
20846;SDS011;10584;50.854;12.902;2022-07-11T02:26:35;4.80;;;2.30;;
20846;SDS011;10584;50.854;12.902;2022-07-11T02:31:56;5.97;;;2.37;;
20846;SDS011;10584;50.854;12.902;2022-07-11T02:37:19;6.17;;;2.10;;
20846;SDS011;10584;50.854;12.902;2022-07-11T02:42:41;7.00;;;2.27;;
20846;SDS011;10584;50.854;12.902;2022-07-11T02:48:02;5.70;;;2.70;;
20846;SDS011;10584;50.854;12.902;2022-07-11T02:53:25;5.07;;;2.30;;
20846;SDS011;10584;50.854;12.902;2022-07-11T02:58:46;4.33;;;2.43;;
20846;SDS011;10584;50.854;12.902;2022-07-11T03:04:08;5.47;;;2.20;;
20846;SDS011;10584;50.854;12.902;2022-07-11T03:09:30;4.13;;;2.33;;
20846;SDS011;10584;50.854;12.902;2022-07-11T03:14:51;6.57;;;2.37;;
20846;SDS011;10584;50.854;12.902;2022-07-11T03:20:13;4.80;;;2.30;;
20846;SDS011;10584;50.854;12.902;2022-07-11T03:25:34;4.87;;;2.60;;
20846;SDS011;10584;50.854;12.902;2022-07-11T03:30:56;3.93;;;2.47;;
20846;SDS011;10584;50.854;12.902;2022-07-11T03:36:17;4.23;;;2.67;;
20846;SDS011;10584;50.854;12.902;2022-07-11T03:41:39;7.30;;;3.40;;
20846;SDS011;10584;50.854;12.902;2022-07-11T03:47:00;6.83;;;2.37;;
20846;SDS011;10584;50.854;12.902;2022-07-11T03:52:22;5.97;;;2.67;;
20846;SDS011;10584;50.854;12.902;2022-07-11T03:57:44;8.37;;;2.60;;
20846;SDS011;10584;50.854;12.902;2022-07-11T04:03:05;7.30;;;2.80;;
20846;SDS011;10584;50.854;12.902;2022-07-11T04:08:27;10.53;;;3.10;;
20846;SDS011;10584;50.854;12.902;2022-07-11T04:13:48;7.20;;;3.17;;
20846;SDS011;10584;50.854;12.902;2022-07-11T04:19:10;6.83;;;3.00;;
20846;SDS011;10584;50.854;12.902;2022-07-11T04:24:32;10.13;;;3.23;;
20846;SDS011;10584;50.854;12.902;2022-07-11T04:29:53;5.43;;;2.40;;
20846;SDS011;10584;50.854;12.902;2022-07-11T04:35:15;5.70;;;2.97;;
20846;SDS011;10584;50.854;12.902;2022-07-11T04:40:37;5.17;;;2.43;;
20846;SDS011;10584;50.854;12.902;2022-07-11T04:46:00;4.17;;;2.40;;
20846;SDS011;10584;50.854;12.902;2022-07-11T04:51:22;3.67;;;2.40;;
20846;SDS011;10584;50.854;12.902;2022-07-11T04:56:46;5.30;;;2.40;;
20846;SDS011;10584;50.854;12.902;2022-07-11T05:02:08;6.47;;;2.27;;
20846;SDS011;10584;50.854;12.902;2022-07-11T05:07:29;6.00;;;2.30;;
20846;SDS011;10584;50.854;12.902;2022-07-11T05:12:54;9.43;;;3.37;;
20846;SDS011;10584;50.854;12.902;2022-07-11T05:18:16;6.47;;;2.37;;
20846;SDS011;10584;50.854;12.902;2022-07-11T05:23:37;8.83;;;2.60;;
20846;SDS011;10584;50.854;12.902;2022-07-11T05:28:59;10.23;;;3.87;;
20846;SDS011;10584;50.854;12.902;2022-07-11T05:34:20;4.83;;;2.60;;
20846;SDS011;10584;50.854;12.902;2022-07-11T05:39:42;7.97;;;3.00;;
20846;SDS011;10584;50.854;12.902;2022-07-11T05:45:03;5.50;;;2.50;;
20846;SDS011;10584;50.854;12.902;2022-07-11T05:50:25;4.43;;;2.27;;
20846;SDS011;10584;50.854;12.902;2022-07-11T05:55:46;8.57;;;2.60;;
20846;SDS011;10584;50.854;12.902;2022-07-11T06:01:08;6.77;;;2.90;;
20846;SDS011;10584;50.854;12.902;2022-07-11T06:06:30;6.63;;;2.53;;
20846;SDS011;10584;50.854;12.902;2022-07-11T06:11:51;4.80;;;2.37;;
20846;SDS011;10584;50.854;12.902;2022-07-11T06:17:12;5.77;;;1.77;;
20846;SDS011;10584;50.854;12.902;2022-07-11T06:22:34;7.50;;;1.93;;
20846;SDS011;10584;50.854;12.902;2022-07-11T06:27:56;4.23;;;1.70;;
20846;SDS011;10584;50.854;12.902;2022-07-11T06:33:18;3.83;;;1.90;;
20846;SDS011;10584;50.854;12.902;2022-07-11T06:38:40;5.83;;;2.67;;
20846;SDS011;10584;50.854;12.902;2022-07-11T06:44:01;5.70;;;2.30;;
20846;SDS011;10584;50.854;12.902;2022-07-11T06:49:23;5.63;;;2.30;;
20846;SDS011;10584;50.854;12.902;2022-07-11T06:54:45;2.80;;;1.70;;
20846;SDS011;10584;50.854;12.902;2022-07-11T07:00:06;3.87;;;1.60;;
20846;SDS011;10584;50.854;12.902;2022-07-11T07:05:29;3.50;;;1.40;;
20846;SDS011;10584;50.854;12.902;2022-07-11T07:10:50;3.60;;;1.57;;
20846;SDS011;10584;50.854;12.902;2022-07-11T07:16:12;4.70;;;1.63;;
20846;SDS011;10584;50.854;12.902;2022-07-11T07:21:34;4.23;;;1.97;;
20846;SDS011;10584;50.854;12.902;2022-07-11T07:26:55;2.53;;;1.90;;
20846;SDS011;10584;50.854;12.902;2022-07-11T07:32:17;3.27;;;2.00;;
20846;SDS011;10584;50.854;12.902;2022-07-11T07:37:38;2.63;;;2.03;;
20846;SDS011;10584;50.854;12.902;2022-07-11T07:43:00;8.17;;;2.87;;
20846;SDS011;10584;50.854;12.902;2022-07-11T07:48:21;3.37;;;2.20;;
20846;SDS011;10584;50.854;12.902;2022-07-11T07:53:43;3.80;;;2.63;;
20846;SDS011;10584;50.854;12.902;2022-07-11T07:59:04;6.23;;;2.47;;
20846;SDS011;10584;50.854;12.902;2022-07-11T08:04:28;6.50;;;2.97;;
20846;SDS011;10584;50.854;12.902;2022-07-11T08:09:50;3.20;;;2.37;;
20846;SDS011;10584;50.854;12.902;2022-07-11T08:15:11;4.90;;;2.20;;
20846;SDS011;10584;50.854;12.902;2022-07-11T08:20:33;4.77;;;2.07;;
20846;SDS011;10584;50.854;12.902;2022-07-11T08:25:54;2.13;;;1.80;;
20846;SDS011;10584;50.854;12.902;2022-07-11T08:31:15;2.83;;;1.87;;
20846;SDS011;10584;50.854;12.902;2022-07-11T08:36:37;6.40;;;2.50;;
20846;SDS011;10584;50.854;12.902;2022-07-11T08:41:59;4.23;;;2.57;;
20846;SDS011;10584;50.854;12.902;2022-07-11T08:47:20;3.50;;;2.50;;
20846;SDS011;10584;50.854;12.902;2022-07-11T08:52:43;3.63;;;2.10;;
20846;SDS011;10584;50.854;12.902;2022-07-11T08:58:06;2.23;;;1.73;;
20846;SDS011;10584;50.854;12.902;2022-07-11T09:03:28;2.37;;;1.93;;
20846;SDS011;10584;50.854;12.902;2022-07-11T09:08:50;3.40;;;1.80;;
20846;SDS011;10584;50.854;12.902;2022-07-11T09:14:22;3.33;;;1.60;;
20846;SDS011;10584;50.854;12.902;2022-07-11T09:19:48;3.40;;;2.17;;
20846;SDS011;10584;50.854;12.902;2022-07-11T09:25:11;5.93;;;2.00;;
20846;SDS011;10584;50.854;12.902;2022-07-11T09:30:45;1.97;;;1.77;;
20846;SDS011;10584;50.854;12.902;2022-07-11T09:36:07;3.57;;;2.07;;
20846;SDS011;10584;50.854;12.902;2022-07-11T09:41:32;4.60;;;2.00;;
20846;SDS011;10584;50.854;12.902;2022-07-11T09:46:55;6.37;;;1.73;;
20846;SDS011;10584;50.854;12.902;2022-07-11T09:52:18;3.23;;;2.00;;
20846;SDS011;10584;50.854;12.902;2022-07-11T09:57:39;1.53;;;1.37;;
20846;SDS011;10584;50.854;12.902;2022-07-11T10:03:01;2.70;;;1.80;;
20846;SDS011;10584;50.854;12.902;2022-07-11T10:08:24;1.97;;;1.70;;
20846;SDS011;10584;50.854;12.902;2022-07-11T10:13:46;2.50;;;1.50;;
20846;SDS011;10584;50.854;12.902;2022-07-11T10:30:00;1.53;;;1.10;;
20846;SDS011;10584;50.854;12.902;2022-07-11T10:35:22;2.50;;;1.40;;
20846;SDS011;10584;50.854;12.902;2022-07-11T10:46:18;2.27;;;1.47;;
20846;SDS011;10584;50.854;12.902;2022-07-11T11:25:10;1.87;;;1.50;;
20846;SDS011;10584;50.854;12.902;2022-07-11T11:30:51;1.40;;;1.30;;
20846;SDS011;10584;50.854;12.902;2022-07-11T11:36:17;3.30;;;1.37;;
20846;SDS011;10584;50.854;12.902;2022-07-11T11:41:41;2.33;;;1.40;;
20846;SDS011;10584;50.854;12.902;2022-07-11T11:47:03;2.50;;;1.40;;
20846;SDS011;10584;50.854;12.902;2022-07-11T11:52:25;2.00;;;1.80;;
20846;SDS011;10584;50.854;12.902;2022-07-11T11:57:48;2.87;;;1.77;;
20846;SDS011;10584;50.854;12.902;2022-07-11T12:03:10;4.17;;;1.60;;
20846;SDS011;10584;50.854;12.902;2022-07-11T12:08:32;3.23;;;1.83;;
20846;SDS011;10584;50.854;12.902;2022-07-11T12:14:01;1.67;;;1.30;;
20846;SDS011;10584;50.854;12.902;2022-07-11T12:19:24;3.40;;;2.10;;
20846;SDS011;10584;50.854;12.902;2022-07-11T12:24:52;2.70;;;1.80;;
20846;SDS011;10584;50.854;12.902;2022-07-11T12:30:21;2.17;;;1.93;;
20846;SDS011;10584;50.854;12.902;2022-07-11T12:35:59;2.73;;;2.00;;
20846;SDS011;10584;50.854;12.902;2022-07-11T12:41:22;2.17;;;1.77;;
20846;SDS011;10584;50.854;12.902;2022-07-11T12:46:43;3.07;;;1.70;;
20846;SDS011;10584;50.854;12.902;2022-07-11T12:52:07;2.53;;;1.60;;
20846;SDS011;10584;50.854;12.902;2022-07-11T12:57:28;1.83;;;1.57;;
20846;SDS011;10584;50.854;12.902;2022-07-11T13:02:50;2.57;;;1.50;;
20846;SDS011;10584;50.854;12.902;2022-07-11T13:08:25;2.03;;;1.77;;
20846;SDS011;10584;50.854;12.902;2022-07-11T13:14:03;2.83;;;1.67;;
20846;SDS011;10584;50.854;12.902;2022-07-11T13:19:44;3.07;;;1.80;;
20846;SDS011;10584;50.854;12.902;2022-07-11T13:25:05;2.33;;;1.60;;
20846;SDS011;10584;50.854;12.902;2022-07-11T13:30:28;4.00;;;1.60;;
20846;SDS011;10584;50.854;12.902;2022-07-11T13:36:11;2.30;;;1.30;;
20846;SDS011;10584;50.854;12.902;2022-07-11T13:41:32;2.73;;;1.40;;
20846;SDS011;10584;50.854;12.902;2022-07-11T13:46:54;2.13;;;1.70;;
20846;SDS011;10584;50.854;12.902;2022-07-11T13:52:15;1.60;;;1.50;;
20846;SDS011;10584;50.854;12.902;2022-07-11T13:57:37;2.17;;;1.43;;
20846;SDS011;10584;50.854;12.902;2022-07-11T14:02:59;4.37;;;1.60;;
20846;SDS011;10584;50.854;12.902;2022-07-11T14:08:20;4.33;;;1.37;;
20846;SDS011;10584;50.854;12.902;2022-07-11T14:13:42;2.10;;;1.50;;
20846;SDS011;10584;50.854;12.902;2022-07-11T14:19:09;2.20;;;1.80;;
20846;SDS011;10584;50.854;12.902;2022-07-11T14:24:31;3.17;;;1.90;;
20846;SDS011;10584;50.854;12.902;2022-07-11T14:29:54;2.73;;;1.60;;
20846;SDS011;10584;50.854;12.902;2022-07-11T14:35:16;1.60;;;1.43;;
20846;SDS011;10584;50.854;12.902;2022-07-11T14:40:37;2.37;;;1.60;;
20846;SDS011;10584;50.854;12.902;2022-07-11T14:45:59;3.30;;;1.67;;
20846;SDS011;10584;50.854;12.902;2022-07-11T14:51:20;4.67;;;1.53;;
20846;SDS011;10584;50.854;12.902;2022-07-11T14:57:02;2.73;;;1.40;;
20846;SDS011;10584;50.854;12.902;2022-07-11T15:02:23;3.53;;;1.87;;
20846;SDS011;10584;50.854;12.902;2022-07-11T15:08:03;4.00;;;2.10;;
20846;SDS011;10584;50.854;12.902;2022-07-11T15:13:43;1.97;;;1.30;;
20846;SDS011;10584;50.854;12.902;2022-07-11T15:19:05;2.00;;;1.10;;
20846;SDS011;10584;50.854;12.902;2022-07-11T15:24:27;1.87;;;1.00;;
20846;SDS011;10584;50.854;12.902;2022-07-11T15:29:49;2.10;;;1.20;;
20846;SDS011;10584;50.854;12.902;2022-07-11T15:35:10;1.67;;;1.10;;
20846;SDS011;10584;50.854;12.902;2022-07-11T15:40:32;1.37;;;1.00;;
20846;SDS011;10584;50.854;12.902;2022-07-11T15:45:53;1.33;;;1.10;;
20846;SDS011;10584;50.854;12.902;2022-07-11T15:51:15;1.60;;;1.30;;
20846;SDS011;10584;50.854;12.902;2022-07-11T15:56:37;4.17;;;0.90;;
20846;SDS011;10584;50.854;12.902;2022-07-11T16:01:58;1.03;;;0.90;;
20846;SDS011;10584;50.854;12.902;2022-07-11T16:07:20;1.70;;;0.97;;
20846;SDS011;10584;50.854;12.902;2022-07-11T16:12:41;3.43;;;1.40;;
20846;SDS011;10584;50.854;12.902;2022-07-11T16:18:03;1.23;;;1.03;;
20846;SDS011;10584;50.854;12.902;2022-07-11T16:23:25;1.90;;;0.90;;
20846;SDS011;10584;50.854;12.902;2022-07-11T16:28:46;1.20;;;0.90;;
20846;SDS011;10584;50.854;12.902;2022-07-11T16:34:08;6.00;;;0.90;;
20846;SDS011;10584;50.854;12.902;2022-07-11T16:39:29;1.17;;;0.97;;
20846;SDS011;10584;50.854;12.902;2022-07-11T16:45:09;4.17;;;0.90;;
20846;SDS011;10584;50.854;12.902;2022-07-11T16:50:31;1.37;;;0.90;;
20846;SDS011;10584;50.854;12.902;2022-07-11T16:56:01;4.47;;;1.20;;
20846;SDS011;10584;50.854;12.902;2022-07-11T17:01:24;1.00;;;0.90;;
20846;SDS011;10584;50.854;12.902;2022-07-11T17:06:46;1.73;;;1.07;;
20846;SDS011;10584;50.854;12.902;2022-07-11T17:12:08;1.33;;;0.80;;
20846;SDS011;10584;50.854;12.902;2022-07-11T17:17:30;1.63;;;0.90;;
20846;SDS011;10584;50.854;12.902;2022-07-11T17:22:52;1.67;;;0.90;;
20846;SDS011;10584;50.854;12.902;2022-07-11T17:28:15;3.20;;;0.97;;
20846;SDS011;10584;50.854;12.902;2022-07-11T17:33:38;1.20;;;0.90;;
20846;SDS011;10584;50.854;12.902;2022-07-11T17:38:59;1.20;;;0.83;;
20846;SDS011;10584;50.854;12.902;2022-07-11T17:44:21;1.10;;;0.90;;
20846;SDS011;10584;50.854;12.902;2022-07-11T17:49:43;1.20;;;1.10;;
20846;SDS011;10584;50.854;12.902;2022-07-11T17:55:08;1.40;;;1.00;;
20846;SDS011;10584;50.854;12.902;2022-07-11T18:00:31;1.00;;;0.80;;
20846;SDS011;10584;50.854;12.902;2022-07-11T18:05:52;6.37;;;2.83;;
20846;SDS011;10584;50.854;12.902;2022-07-11T18:11:14;1.57;;;1.30;;
20846;SDS011;10584;50.854;12.902;2022-07-11T18:16:36;2.60;;;1.00;;
20846;SDS011;10584;50.854;12.902;2022-07-11T18:21:58;2.07;;;1.10;;
20846;SDS011;10584;50.854;12.902;2022-07-11T18:27:19;1.80;;;0.90;;
20846;SDS011;10584;50.854;12.902;2022-07-11T18:32:41;1.73;;;0.93;;
20846;SDS011;10584;50.854;12.902;2022-07-11T18:38:07;1.50;;;1.20;;
20846;SDS011;10584;50.854;12.902;2022-07-11T18:43:28;1.90;;;1.20;;
20846;SDS011;10584;50.854;12.902;2022-07-11T18:48:50;2.83;;;0.90;;
20846;SDS011;10584;50.854;12.902;2022-07-11T18:54:11;1.13;;;1.00;;
20846;SDS011;10584;50.854;12.902;2022-07-11T18:59:33;1.70;;;1.00;;
20846;SDS011;10584;50.854;12.902;2022-07-11T19:04:54;2.80;;;0.90;;
20846;SDS011;10584;50.854;12.902;2022-07-11T19:10:16;1.10;;;1.00;;
20846;SDS011;10584;50.854;12.902;2022-07-11T19:15:37;1.30;;;1.10;;
20846;SDS011;10584;50.854;12.902;2022-07-11T19:20:59;4.17;;;1.20;;
20846;SDS011;10584;50.854;12.902;2022-07-11T19:26:20;2.03;;;1.50;;
20846;SDS011;10584;50.854;12.902;2022-07-11T19:31:42;1.97;;;1.50;;
20846;SDS011;10584;50.854;12.902;2022-07-11T19:37:04;4.63;;;1.70;;
20846;SDS011;10584;50.854;12.902;2022-07-11T19:42:27;2.20;;;1.60;;
20846;SDS011;10584;50.854;12.902;2022-07-11T19:47:52;3.53;;;1.80;;
20846;SDS011;10584;50.854;12.902;2022-07-11T19:53:14;1.97;;;1.50;;
20846;SDS011;10584;50.854;12.902;2022-07-11T19:58:36;8.17;;;1.50;;
20846;SDS011;10584;50.854;12.902;2022-07-11T20:03:58;2.30;;;1.60;;
20846;SDS011;10584;50.854;12.902;2022-07-11T20:09:19;4.30;;;1.70;;
20846;SDS011;10584;50.854;12.902;2022-07-11T20:14:41;5.80;;;1.80;;
20846;SDS011;10584;50.854;12.902;2022-07-11T20:20:03;2.10;;;1.50;;
20846;SDS011;10584;50.854;12.902;2022-07-11T20:25:27;5.67;;;1.90;;
20846;SDS011;10584;50.854;12.902;2022-07-11T20:30:49;4.83;;;1.70;;
20846;SDS011;10584;50.854;12.902;2022-07-11T20:36:11;2.40;;;1.40;;
20846;SDS011;10584;50.854;12.902;2022-07-11T20:41:32;3.27;;;1.70;;
20846;SDS011;10584;50.854;12.902;2022-07-11T20:46:54;6.17;;;1.60;;
20846;SDS011;10584;50.854;12.902;2022-07-11T20:52:15;2.47;;;1.63;;
20846;SDS011;10584;50.854;12.902;2022-07-11T20:57:37;4.60;;;1.90;;
20846;SDS011;10584;50.854;12.902;2022-07-11T21:02:58;2.63;;;1.73;;
20846;SDS011;10584;50.854;12.902;2022-07-11T21:08:19;2.90;;;1.60;;
20846;SDS011;10584;50.854;12.902;2022-07-11T21:13:42;3.10;;;1.60;;
20846;SDS011;10584;50.854;12.902;2022-07-11T21:19:03;3.00;;;1.70;;
20846;SDS011;10584;50.854;12.902;2022-07-11T21:24:25;3.30;;;2.00;;
20846;SDS011;10584;50.854;12.902;2022-07-11T21:29:46;4.50;;;2.90;;
20846;SDS011;10584;50.854;12.902;2022-07-11T21:35:08;5.23;;;2.80;;
20846;SDS011;10584;50.854;12.902;2022-07-11T21:40:30;4.20;;;2.40;;
20846;SDS011;10584;50.854;12.902;2022-07-11T21:45:51;3.00;;;2.20;;
20846;SDS011;10584;50.854;12.902;2022-07-11T21:51:13;3.10;;;2.30;;
20846;SDS011;10584;50.854;12.902;2022-07-11T21:56:34;5.00;;;2.90;;
20846;SDS011;10584;50.854;12.902;2022-07-11T22:01:56;5.57;;;2.67;;
20846;SDS011;10584;50.854;12.902;2022-07-11T22:07:18;5.07;;;3.00;;
20846;SDS011;10584;50.854;12.902;2022-07-11T22:12:39;3.67;;;2.73;;
20846;SDS011;10584;50.854;12.902;2022-07-11T22:18:01;5.27;;;2.70;;
20846;SDS011;10584;50.854;12.902;2022-07-11T22:23:22;4.53;;;2.90;;
20846;SDS011;10584;50.854;12.902;2022-07-11T22:28:47;4.27;;;2.33;;
20846;SDS011;10584;50.854;12.902;2022-07-11T22:34:09;4.33;;;2.17;;
20846;SDS011;10584;50.854;12.902;2022-07-11T22:39:30;2.70;;;2.20;;
20846;SDS011;10584;50.854;12.902;2022-07-11T22:44:52;5.83;;;2.50;;
20846;SDS011;10584;50.854;12.902;2022-07-11T22:50:33;4.13;;;2.00;;
20846;SDS011;10584;50.854;12.902;2022-07-11T22:55:56;3.60;;;2.60;;
20846;SDS011;10584;50.854;12.902;2022-07-11T23:01:18;2.73;;;2.00;;
20846;SDS011;10584;50.854;12.902;2022-07-11T23:06:39;3.33;;;2.20;;
20846;SDS011;10584;50.854;12.902;2022-07-11T23:12:00;5.83;;;2.27;;
20846;SDS011;10584;50.854;12.902;2022-07-11T23:17:22;6.17;;;2.40;;
20846;SDS011;10584;50.854;12.902;2022-07-11T23:22:44;5.43;;;2.23;;
20846;SDS011;10584;50.854;12.902;2022-07-11T23:28:07;2.90;;;2.13;;
20846;SDS011;10584;50.854;12.902;2022-07-11T23:33:28;3.07;;;2.17;;
20846;SDS011;10584;50.854;12.902;2022-07-11T23:38:50;2.60;;;1.90;;
20846;SDS011;10584;50.854;12.902;2022-07-11T23:44:11;2.47;;;1.97;;
20846;SDS011;10584;50.854;12.902;2022-07-11T23:49:33;2.40;;;2.00;;
20846;SDS011;10584;50.854;12.902;2022-07-11T23:54:55;3.07;;;2.10;;
